Time;durP1;ratioP1;P1;durP2;ratioP2;P2;SDS_P1;SDS_P2;PMS_P1;PMS_P2;Temp;Humidity;BMP_temperature;BMP_pressure;BME280_temperature;BME280_humidity;BME280_pressure;Samples;Min_cycle;Max_cycle;Signal;HPM_P1;HPM_P2
2023/09/04 00:00:31;;;;;;;;;;;26.30;69.90;;;;;;5037571;28;42938;-84
2023/09/04 00:02:56;;;;;;;;;;;26.20;69.90;;;;;;5028217;28;42863;-82
2023/09/04 00:05:22;;;;;;;;;;;26.20;69.80;;;;;;5041270;28;42915;-77
2023/09/04 00:07:47;;;;;;;;;;;26.30;69.80;;;;;;5032188;28;43089;-79
2023/09/04 00:10:12;;;;;;;;;;;26.20;69.70;;;;;;5034421;28;43007;-82
2023/09/04 00:12:38;;;;;;;;;;;26.10;69.60;;;;;;5039203;28;42924;-76
2023/09/04 00:15:04;;;;;;;;;;;26.30;69.50;;;;;;5027206;28;43043;-79
2023/09/04 00:17:30;;;;;;;;;;;26.30;68.90;;;;;;5040116;28;43658;-77
2023/09/04 00:19:56;;;;;;;;;;;26.00;69.10;;;;;;5033533;28;43715;-82
2023/09/04 00:22:21;;;;;;;;;;;26.40;69.40;;;;;;5032955;28;43478;-82
2023/09/04 00:24:47;;;;;;;;;;;26.30;68.90;;;;;;5039376;28;42984;-82
2023/09/04 00:27:12;;;;;;;;;;;26.40;69.00;;;;;;5028038;28;43063;-81
2023/09/04 00:29:38;;;;;;;;;;;26.40;69.10;;;;;;5038499;28;42981;-82
2023/09/04 00:32:03;;;;;;;;;;;26.50;69.30;;;;;;5033887;28;42870;-79
2023/09/04 00:34:29;;;;;;;;;;;26.20;68.50;;;;;;5031796;28;43053;-81
2023/09/04 00:36:54;;;;;;;;;;;26.20;69.10;;;;;;5041271;28;43637;-83
2023/09/04 00:39:20;;;;;;;;;;;26.30;69.10;;;;;;5028553;28;42969;-83
2023/09/04 00:41:46;;;;;;;;;;;26.20;68.70;;;;;;5037566;28;43049;-84
2023/09/04 00:44:12;;;;;;;;;;;26.30;69.30;;;;;;5035556;28;42924;-82
2023/09/04 00:46:38;;;;;;;;;;;26.20;69.10;;;;;;5030384;28;44333;-80
2023/09/04 00:49:04;;;;;;;;;;;26.30;69.30;;;;;;5041455;28;42875;-82
2023/09/04 00:51:29;;;;;;;;;;;26.30;69.30;;;;;;5029284;28;43813;-77
2023/09/04 00:53:55;;;;;;;;;;;26.10;69.30;;;;;;5036238;28;43032;-82
2023/09/04 00:56:21;;;;;;;;;;;26.40;69.60;;;;;;5036291;28;42843;-83
2023/09/04 00:58:47;;;;;;;;;;;26.30;69.20;;;;;;5028155;28;42965;-79
2023/09/04 01:01:13;;;;;;;;;;;26.20;68.80;;;;;;5041062;28;43083;-79
2023/09/04 01:03:38;;;;;;;;;;;26.30;68.90;;;;;;5029887;28;42866;-79
2023/09/04 01:06:04;;;;;;;;;;;26.10;68.10;;;;;;5035021;28;43036;-84
2023/09/04 01:08:29;;;;;;;;;;;26.10;68.70;;;;;;5037189;28;42963;-83
2023/09/04 01:11:16;;;;;;;;;;;26.30;68.80;;;;;;5027633;28;43003;-78
2023/09/04 01:13:49;;;;;;;;;;;26.20;66.70;;;;;;5017311;28;42947;-82
2023/09/04 01:16:16;;;;;;;;;;;26.30;66.00;;;;;;5033802;28;42754;-77
2023/09/04 01:18:42;;;;;;;;;;;26.20;68.10;;;;;;5039057;28;42960;-82
2023/09/04 01:21:07;;;;;;;;;;;26.10;68.20;;;;;;5027379;28;43388;-85
2023/09/04 01:23:33;;;;;;;;;;;26.20;68.30;;;;;;5028450;28;43013;-83
2023/09/04 01:26:10;;;;;;;;;;;26.20;68.20;;;;;;5035104;28;42955;-77
2023/09/04 01:29:08;;;;;;;;;;;26.30;66.00;;;;;;5037520;28;42867;-82
2023/09/04 01:31:42;;;;;;;;;;;26.10;65.80;;;;;;5033684;28;43153;-77
2023/09/04 01:34:11;;;;;;;;;;;26.20;66.00;;;;;;5034197;28;42973;-82
2023/09/04 01:36:37;;;;;;;;;;;26.20;65.90;;;;;;5037532;28;42846;-79
2023/09/04 01:39:04;;;;;;;;;;;26.20;68.30;;;;;;5027209;28;42996;-84
2023/09/04 01:41:29;;;;;;;;;;;26.10;68.20;;;;;;5039233;28;44735;-76
2023/09/04 01:43:55;;;;;;;;;;;26.30;68.50;;;;;;5035464;28;42843;-77
2023/09/04 01:46:20;;;;;;;;;;;26.10;68.00;;;;;;5035416;28;42886;-82
2023/09/04 01:48:47;;;;;;;;;;;26.40;68.40;;;;;;5042821;28;42873;-83
2023/09/04 01:51:13;;;;;;;;;;;26.10;68.30;;;;;;5030620;28;43854;-83
2023/09/04 01:53:38;;;;;;;;;;;26.00;68.20;;;;;;5040983;28;42982;-84
2023/09/04 01:56:04;;;;;;;;;;;26.00;68.50;;;;;;5036343;28;43005;-85
2023/09/04 01:58:29;;;;;;;;;;;26.20;68.80;;;;;;5034597;28;42897;-77
2023/09/04 02:00:55;;;;;;;;;;;26.00;68.40;;;;;;5043548;28;42816;-84
2023/09/04 02:03:20;;;;;;;;;;;26.20;69.10;;;;;;5030767;28;42858;-84
2023/09/04 02:05:46;;;;;;;;;;;26.00;68.30;;;;;;5038975;28;43753;-83
2023/09/04 02:08:11;;;;;;;;;;;26.30;68.20;;;;;;5037618;28;42917;-77
2023/09/04 02:10:37;;;;;;;;;;;26.10;68.10;;;;;;5032160;28;43740;-84
2023/09/04 02:13:02;;;;;;;;;;;26.00;67.90;;;;;;5042772;28;42956;-82
2023/09/04 02:15:29;;;;;;;;;;;26.00;67.60;;;;;;5031207;28;42882;-77
2023/09/04 02:17:54;;;;;;;;;;;26.10;67.80;;;;;;5037284;28;42970;-84
2023/09/04 02:20:20;;;;;;;;;;;26.00;67.80;;;;;;5037853;28;43436;-83
2023/09/04 02:22:45;;;;;;;;;;;26.00;67.30;;;;;;5031370;28;42988;-85
2023/09/04 02:25:11;;;;;;;;;;;26.10;67.00;;;;;;5041882;28;43358;-78
2023/09/04 02:27:36;;;;;;;;;;;26.10;66.70;;;;;;5021166;28;43113;-78
2023/09/04 02:30:07;;;;;;;;;;;26.00;66.50;;;;;;5024530;28;43687;-76
2023/09/04 02:32:33;;;;;;;;;;;26.00;65.30;;;;;;5033555;28;42913;-80
2023/09/04 02:34:59;;;;;;;;;;;26.20;66.30;;;;;;5041610;28;42982;-81
2023/09/04 02:37:25;;;;;;;;;;;26.10;66.40;;;;;;5028650;28;42899;-82
2023/09/04 02:39:50;;;;;;;;;;;25.90;66.00;;;;;;5038295;28;43492;-77
2023/09/04 02:42:15;;;;;;;;;;;26.00;66.10;;;;;;5036164;28;42933;-78
2023/09/04 02:44:41;;;;;;;;;;;26.10;66.40;;;;;;5031216;28;43575;-77
2023/09/04 02:47:06;;;;;;;;;;;26.00;66.20;;;;;;5041225;28;43028;-79
2023/09/04 02:49:32;;;;;;;;;;;26.00;66.40;;;;;;5030574;28;43150;-83
2023/09/04 02:51:57;;;;;;;;;;;26.10;66.90;;;;;;5036652;28;42997;-82
2023/09/04 02:54:23;;;;;;;;;;;26.00;66.40;;;;;;5038003;28;43674;-82
2023/09/04 02:56:48;;;;;;;;;;;26.30;66.80;;;;;;5027866;28;43199;-80
2023/09/04 02:59:14;;;;;;;;;;;26.00;67.00;;;;;;5042851;28;42897;-83
2023/09/04 03:01:39;;;;;;;;;;;25.80;66.70;;;;;;5030784;28;43586;-82
2023/09/04 03:04:05;;;;;;;;;;;26.10;67.10;;;;;;5036321;28;43360;-82
2023/09/04 03:06:30;;;;;;;;;;;25.90;66.40;;;;;;5038685;28;42902;-81
2023/09/04 03:08:56;;;;;;;;;;;26.00;66.70;;;;;;5028930;28;42930;-79
2023/09/04 03:11:21;;;;;;;;;;;25.90;66.70;;;;;;5040537;28;42901;-84
2023/09/04 03:13:47;;;;;;;;;;;25.90;67.00;;;;;;5024741;28;43331;-82
2023/09/04 03:16:13;;;;;;;;;;;25.90;66.70;;;;;;5036180;28;42933;-82
2023/09/04 03:18:38;;;;;;;;;;;26.00;66.70;;;;;;5030504;28;43968;-81
2023/09/04 03:21:04;;;;;;;;;;;26.10;66.80;;;;;;5041761;28;42944;-78
2023/09/04 03:23:30;;;;;;;;;;;26.00;67.10;;;;;;5030162;28;42989;-76
2023/09/04 03:25:56;;;;;;;;;;;26.00;67.20;;;;;;5037746;28;43137;-78
2023/09/04 03:28:22;;;;;;;;;;;26.20;67.80;;;;;;5036764;28;44431;-77
2023/09/04 03:30:47;;;;;;;;;;;25.70;66.80;;;;;;5028632;28;42966;-82
2023/09/04 03:33:13;;;;;;;;;;;26.00;67.00;;;;;;5041363;28;43733;-82
2023/09/04 03:35:38;;;;;;;;;;;26.10;67.00;;;;;;5029348;28;43095;-80
2023/09/04 03:38:04;;;;;;;;;;;26.10;67.00;;;;;;5035103;28;43510;-79
2023/09/04 03:40:30;;;;;;;;;;;26.00;66.60;;;;;;5037667;28;43042;-77
2023/09/04 03:42:55;;;;;;;;;;;25.90;67.20;;;;;;5028858;28;43464;-83
2023/09/04 03:45:21;;;;;;;;;;;26.00;67.40;;;;;;5012523;28;42991;-76
2023/09/04 03:47:47;;;;;;;;;;;26.00;67.40;;;;;;5038199;28;42975;-79
2023/09/04 03:50:13;;;;;;;;;;;25.90;67.50;;;;;;5035059;28;42935;-80
2023/09/04 03:52:38;;;;;;;;;;;25.70;67.40;;;;;;5027466;28;42974;-78
2023/09/04 03:55:08;;;;;;;;;;;25.90;67.80;;;;;;5025418;28;43787;-80
2023/09/04 03:57:35;;;;;;;;;;;25.80;67.00;;;;;;5015913;28;43027;-84
2023/09/04 04:00:01;;;;;;;;;;;25.80;67.70;;;;;;5036666;28;42903;-77
2023/09/04 04:02:27;;;;;;;;;;;25.80;67.90;;;;;;5028754;28;43007;-85
2023/09/04 04:04:53;;;;;;;;;;;25.90;68.10;;;;;;5036515;28;43142;-83
2023/09/04 04:07:18;;;;;;;;;;;26.00;67.50;;;;;;5034883;28;43753;-83
2023/09/04 04:09:44;;;;;;;;;;;25.90;68.00;;;;;;5045517;28;42854;-82
2023/09/04 04:12:10;;;;;;;;;;;25.90;67.80;;;;;;5045250;28;42944;-82
2023/09/04 04:14:36;;;;;;;;;;;26.00;67.90;;;;;;5044284;28;42949;-80
2023/09/04 04:17:01;;;;;;;;;;;26.00;67.90;;;;;;5032481;28;44387;-77
2023/09/04 04:19:27;;;;;;;;;;;25.90;67.20;;;;;;5036541;28;42855;-82
2023/09/04 04:21:53;;;;;;;;;;;25.90;67.80;;;;;;5042646;28;44344;-83
2023/09/04 04:24:19;;;;;;;;;;;25.90;67.80;;;;;;5023109;28;42951;-83
2023/09/04 04:26:45;;;;;;;;;;;25.80;67.90;;;;;;5021488;28;43370;-79
2023/09/04 04:29:10;;;;;;;;;;;25.90;68.10;;;;;;5023104;28;43068;-80
2023/09/04 04:31:36;;;;;;;;;;;25.30;67.70;;;;;;5024126;28;43728;-80
2023/09/04 04:34:02;;;;;;;;;;;25.90;68.10;;;;;;5022438;28;43354;-80
2023/09/04 04:36:28;;;;;;;;;;;25.80;68.00;;;;;;5023398;28;42921;-80
2023/09/04 04:38:53;;;;;;;;;;;26.10;68.30;;;;;;5023331;28;42902;-79
2023/09/04 04:41:19;;;;;;;;;;;25.90;67.90;;;;;;5019722;28;42819;-80
2023/09/04 04:43:44;;;;;;;;;;;26.00;67.80;;;;;;5023885;28;43014;-78
2023/09/04 04:46:12;;;;;;;;;;;25.80;67.60;;;;;;5023983;28;43426;-83
2023/09/04 04:48:38;;;;;;;;;;;26.00;67.50;;;;;;5022265;28;43232;-84
2023/09/04 04:51:03;;;;;;;;;;;25.90;67.70;;;;;;5024005;28;43039;-85
2023/09/04 04:53:29;;;;;;;;;;;26.00;67.40;;;;;;5023947;28;43126;-83
2023/09/04 04:55:55;;;;;;;;;;;25.80;67.00;;;;;;5022986;28;43598;-84
2023/09/04 04:58:21;;;;;;;;;;;25.90;67.20;;;;;;5024385;28;42942;-86
2023/09/04 05:00:46;;;;;;;;;;;25.90;67.20;;;;;;5024310;28;42902;-89
2023/09/04 05:03:12;;;;;;;;;;;25.80;67.30;;;;;;5024075;28;42985;-84
2023/09/04 05:05:43;;;;;;;;;;;25.70;67.40;;;;;;5022393;28;43591;-93
2023/09/04 05:08:08;;;;;;;;;;;25.70;67.60;;;;;;5021896;28;42917;-81
2023/09/04 05:10:34;;;;;;;;;;;25.80;67.90;;;;;;5022877;28;43013;-87
2023/09/04 05:12:59;;;;;;;;;;;25.60;67.40;;;;;;5022113;28;43022;-86
2023/09/04 05:15:25;;;;;;;;;;;25.60;68.20;;;;;;5022206;28;43184;-77
2023/09/04 05:17:50;;;;;;;;;;;25.30;68.40;;;;;;5024829;28;43115;-78
2023/09/04 05:20:16;;;;;;;;;;;25.30;68.60;;;;;;5033522;28;43487;-79
2023/09/04 05:22:41;;;;;;;;;;;25.50;69.50;;;;;;5026970;28;42969;-84
2023/09/04 05:25:08;;;;;;;;;;;25.20;69.00;;;;;;5022933;28;42935;-84
2023/09/04 05:27:33;;;;;;;;;;;25.10;69.00;;;;;;5025673;28;42988;-83
2023/09/04 05:29:59;;;;;;;;;;;25.20;69.40;;;;;;5025998;28;43318;-79
2023/09/04 05:32:24;;;;;;;;;;;25.40;68.80;;;;;;5027914;28;42878;-86
2023/09/04 05:34:53;;;;;;;;;;;25.50;69.60;;;;;;5027178;28;44294;-84
2023/09/04 05:37:18;;;;;;;;;;;25.40;67.20;;;;;;5025608;28;42973;-85
2023/09/04 05:39:44;;;;;;;;;;;25.50;69.30;;;;;;5027453;28;43595;-83
2023/09/04 05:42:09;;;;;;;;;;;25.40;69.10;;;;;;5018919;28;42914;-84
2023/09/04 05:44:35;;;;;;;;;;;25.50;68.90;;;;;;5026147;28;42931;-79
2023/09/04 05:47:01;;;;;;;;;;;25.70;68.20;;;;;;5025265;28;43472;-85
2023/09/04 05:49:27;;;;;;;;;;;25.30;68.80;;;;;;5025875;28;44264;-85
2023/09/04 05:51:54;;;;;;;;;;;25.40;68.40;;;;;;5023570;28;43164;-80
2023/09/04 05:54:19;;;;;;;;;;;25.60;68.30;;;;;;5027273;28;43006;-78
2023/09/04 05:56:45;;;;;;;;;;;25.60;68.00;;;;;;5026531;28;43092;-80
2023/09/04 05:59:11;;;;;;;;;;;26.00;68.50;;;;;;5026015;28;43562;-80
2023/09/04 06:01:37;;;;;;;;;;;25.60;67.90;;;;;;5025796;28;42965;-78
2023/09/04 06:04:02;;;;;;;;;;;25.70;68.10;;;;;;5027498;28;42982;-82
2023/09/04 06:06:28;;;;;;;;;;;25.80;68.00;;;;;;5027597;28;42993;-84
2023/09/04 06:08:53;;;;;;;;;;;25.70;68.30;;;;;;5027591;28;43441;-83
2023/09/04 06:11:19;;;;;;;;;;;25.60;68.30;;;;;;5027553;28;42902;-83
2023/09/04 06:13:44;;;;;;;;;;;25.60;68.30;;;;;;5027272;28;42991;-84
2023/09/04 06:16:12;;;;;;;;;;;25.50;68.40;;;;;;5025860;28;42973;-82
2023/09/04 06:18:38;;;;;;;;;;;25.70;68.70;;;;;;5027308;28;43573;-84
2023/09/04 06:21:03;;;;;;;;;;;26.10;68.80;;;;;;5027099;28;43065;-84
2023/09/04 06:23:29;;;;;;;;;;;25.50;68.30;;;;;;5026861;28;44454;-84
2023/09/04 06:25:54;;;;;;;;;;;25.70;68.80;;;;;;5026822;28;42911;-82
2023/09/04 06:28:20;;;;;;;;;;;25.80;68.60;;;;;;5026450;28;42962;-83
2023/09/04 06:30:45;;;;;;;;;;;25.60;68.60;;;;;;5026875;28;42897;-82
2023/09/04 06:33:11;;;;;;;;;;;25.40;68.70;;;;;;5027536;28;43496;-84
2023/09/04 06:35:37;;;;;;;;;;;25.60;69.00;;;;;;5027795;28;43199;-82
2023/09/04 06:38:03;;;;;;;;;;;25.70;69.20;;;;;;5027400;28;43495;-83
2023/09/04 06:40:29;;;;;;;;;;;25.50;68.80;;;;;;5027189;28;42940;-84
2023/09/04 06:42:54;;;;;;;;;;;25.60;68.30;;;;;;5026871;28;43849;-82
2023/09/04 06:45:20;;;;;;;;;;;25.70;69.00;;;;;;5027380;28;42902;-84
2023/09/04 06:47:46;;;;;;;;;;;25.70;68.90;;;;;;5026882;28;42942;-85
2023/09/04 06:50:11;;;;;;;;;;;25.80;68.90;;;;;;5025911;28;42953;-84
2023/09/04 06:52:37;;;;;;;;;;;25.70;68.50;;;;;;5026163;28;42910;-83
2023/09/04 06:55:03;;;;;;;;;;;25.90;69.40;;;;;;5026613;28;42943;-84
2023/09/04 06:57:28;;;;;;;;;;;25.70;68.70;;;;;;5026393;28;43021;-82
2023/09/04 06:59:57;;;;;;;;;;;25.80;69.10;;;;;;5026889;28;43295;-83
2023/09/04 07:02:23;;;;;;;;;;;25.70;66.70;;;;;;5026870;28;43301;-82
2023/09/04 07:04:48;;;;;;;;;;;25.50;68.50;;;;;;5026335;28;42868;-84
2023/09/04 07:07:14;;;;;;;;;;;25.60;68.00;;;;;;5026324;28;43541;-84
2023/09/04 07:09:39;;;;;;;;;;;25.70;68.70;;;;;;5024771;28;43054;-82
2023/09/04 07:12:05;;;;;;;;;;;25.90;68.90;;;;;;5026224;28;42886;-84
2023/09/04 07:14:32;;;;;;;;;;;26.10;68.90;;;;;;5025929;28;42911;-82
2023/09/04 07:16:57;;;;;;;;;;;25.80;68.60;;;;;;5026048;28;42957;-83
2023/09/04 07:19:23;;;;;;;;;;;25.70;68.80;;;;;;5026142;28;43005;-84
2023/09/04 07:21:49;;;;;;;;;;;25.70;68.60;;;;;;5026056;28;42971;-84
2023/09/04 07:24:14;;;;;;;;;;;25.80;68.80;;;;;;5026076;28;42991;-82
2023/09/04 07:26:40;;;;;;;;;;;25.80;68.80;;;;;;5026280;28;43527;-83
2023/09/04 07:29:05;;;;;;;;;;;25.50;68.50;;;;;;5026314;28;43077;-82
2023/09/04 07:31:31;;;;;;;;;;;25.80;68.80;;;;;;5025650;28;43399;-82
2023/09/04 07:33:56;;;;;;;;;;;25.70;68.60;;;;;;5025254;28;43000;-85
2023/09/04 07:36:22;;;;;;;;;;;25.70;68.60;;;;;;5025538;28;43578;-84
2023/09/04 07:38:47;;;;;;;;;;;25.70;68.60;;;;;;5025557;28;43026;-85
2023/09/04 07:41:13;;;;;;;;;;;25.80;68.70;;;;;;5026224;28;42953;-81
2023/09/04 07:43:38;;;;;;;;;;;25.80;68.80;;;;;;5025498;28;42875;-81
2023/09/04 07:46:04;;;;;;;;;;;25.70;68.70;;;;;;5026070;28;43073;-84
2023/09/04 07:48:30;;;;;;;;;;;25.60;68.70;;;;;;5025894;28;42930;-83
2023/09/04 07:50:56;;;;;;;;;;;25.80;68.70;;;;;;5025759;28;43448;-84
2023/09/04 07:53:22;;;;;;;;;;;25.40;68.40;;;;;;5026068;28;43058;-83
2023/09/04 07:55:48;;;;;;;;;;;25.60;68.50;;;;;;5025478;28;42988;-84
2023/09/04 07:58:14;;;;;;;;;;;25.90;68.60;;;;;;5025403;28;42976;-84
2023/09/04 08:00:46;;;;;;;;;;;25.40;67.90;;;;;;5025065;28;43328;-81
2023/09/04 08:03:12;;;;;;;;;;;25.90;66.10;;;;;;5025281;28;42969;-79
2023/09/04 08:05:37;;;;;;;;;;;26.00;68.40;;;;;;5025076;28;42871;-84
2023/09/04 08:08:07;;;;;;;;;;;25.90;68.30;;;;;;5025612;28;42965;-82
2023/09/04 08:10:33;;;;;;;;;;;26.00;68.20;;;;;;5025049;28;43099;-82
2023/09/04 08:12:59;;;;;;;;;;;26.20;68.70;;;;;;5024806;28;42957;-77
2023/09/04 08:15:24;;;;;;;;;;;26.00;68.50;;;;;;5025175;28;42943;-81
2023/09/04 08:17:50;;;;;;;;;;;26.00;69.00;;;;;;5025550;28;42858;-84
2023/09/04 08:20:15;;;;;;;;;;;26.10;69.30;;;;;;5025315;28;43679;-83
2023/09/04 08:22:41;;;;;;;;;;;25.80;69.10;;;;;;5025718;28;42874;-85
2023/09/04 08:25:07;;;;;;;;;;;26.40;69.70;;;;;;5025356;28;43363;-82
2023/09/04 08:27:32;;;;;;;;;;;26.00;68.40;;;;;;5025303;28;42971;-84
2023/09/04 08:29:58;;;;;;;;;;;25.80;69.00;;;;;;5024826;28;43543;-84
2023/09/04 08:32:23;;;;;;;;;;;25.90;68.60;;;;;;5025266;28;42958;-81
2023/09/04 08:34:49;;;;;;;;;;;25.90;69.60;;;;;;5024968;28;43631;-83
2023/09/04 08:37:14;;;;;;;;;;;25.90;70.80;;;;;;5024894;28;43132;-82
2023/09/04 08:39:40;;;;;;;;;;;25.90;70.10;;;;;;5025209;28;42899;-84
2023/09/04 08:42:07;;;;;;;;;;;25.90;69.60;;;;;;5025391;28;42986;-85
2023/09/04 08:44:34;;;;;;;;;;;26.10;70.70;;;;;;5023903;28;44517;-81
2023/09/04 08:47:00;;;;;;;;;;;26.00;70.60;;;;;;5025027;28;42920;-78
2023/09/04 08:49:26;;;;;;;;;;;26.00;70.60;;;;;;5024032;28;43463;-84
2023/09/04 08:51:52;;;;;;;;;;;26.00;71.00;;;;;;5024216;28;42961;-84
2023/09/04 08:54:17;;;;;;;;;;;26.00;70.70;;;;;;5024115;28;43065;-85
2023/09/04 08:56:43;;;;;;;;;;;26.40;71.00;;;;;;5024807;28;42929;-83
2023/09/04 08:59:08;;;;;;;;;;;26.00;71.00;;;;;;5024741;28;43749;-80
2023/09/04 09:01:35;;;;;;;;;;;26.00;71.40;;;;;;5024970;28;42779;-86
2023/09/04 09:04:02;;;;;;;;;;;25.90;71.80;;;;;;5024970;28;43575;-83
2023/09/04 09:06:28;;;;;;;;;;;25.90;71.30;;;;;;5024398;28;43018;-84
2023/09/04 09:08:54;;;;;;;;;;;26.10;71.30;;;;;;5024599;28;43133;-84
2023/09/04 09:11:19;;;;;;;;;;;26.00;71.40;;;;;;5024797;28;42903;-84
2023/09/04 09:13:47;;;;;;;;;;;26.00;71.30;;;;;;5024619;28;42870;-83
2023/09/04 09:16:19;;;;;;;;;;;26.00;71.10;;;;;;5024340;28;42994;-85
2023/09/04 09:18:46;;;;;;;;;;;26.00;68.80;;;;;;5024340;28;42998;-82
2023/09/04 09:21:21;;;;;;;;;;;26.00;70.90;;;;;;5024702;28;42743;-83
2023/09/04 09:23:46;;;;;;;;;;;25.90;68.90;;;;;;5024368;28;42861;-81
2023/09/04 09:26:12;;;;;;;;;;;26.10;71.40;;;;;;5024462;28;42906;-81
2023/09/04 09:28:37;;;;;;;;;;;26.00;70.30;;;;;;5024222;28;42839;-87
2023/09/04 09:31:03;;;;;;;;;;;26.10;70.90;;;;;;5024132;28;42907;-86
2023/09/04 09:33:29;;;;;;;;;;;26.00;70.70;;;;;;5023985;28;42936;-79
2023/09/04 09:35:56;;;;;;;;;;;26.00;70.70;;;;;;5024551;28;43016;-84
2023/09/04 09:38:21;;;;;;;;;;;26.10;70.60;;;;;;5024260;28;42942;-86
2023/09/04 09:40:47;;;;;;;;;;;26.00;70.60;;;;;;5025074;28;42863;-86
2023/09/04 09:43:13;;;;;;;;;;;26.00;70.40;;;;;;5024135;28;42902;-84
2023/09/04 09:45:38;;;;;;;;;;;26.40;70.60;;;;;;5023576;28;43178;-86
2023/09/04 09:48:04;;;;;;;;;;;26.10;70.20;;;;;;5022484;28;42960;-85
2023/09/04 09:50:30;;;;;;;;;;;26.00;70.20;;;;;;5023958;28;42944;-82
2023/09/04 09:53:02;;;;;;;;;;;26.00;70.30;;;;;;5023997;28;42969;-86
2023/09/04 09:55:29;;;;;;;;;;;26.00;68.20;;;;;;5023841;28;42909;-78
2023/09/04 09:57:55;;;;;;;;;;;26.10;70.10;;;;;;5022330;28;44479;-86
2023/09/04 10:00:21;;;;;;;;;;;26.20;70.80;;;;;;5024487;28;42836;-85
2023/09/04 10:02:47;;;;;;;;;;;26.10;70.70;;;;;;5026224;28;43363;-86
2023/09/04 10:05:13;;;;;;;;;;;26.10;70.60;;;;;;5027736;28;42965;-81
2023/09/04 10:07:38;;;;;;;;;;;26.00;70.60;;;;;;5027847;28;42942;-85
2023/09/04 10:10:05;;;;;;;;;;;25.90;70.40;;;;;;5027466;28;42783;-84
2023/09/04 10:12:34;;;;;;;;;;;26.10;70.00;;;;;;5027381;28;43793;-85
2023/09/04 10:15:00;;;;;;;;;;;26.00;68.30;;;;;;5027145;28;43570;-85
2023/09/04 10:17:35;;;;;;;;;;;26.10;70.70;;;;;;5026487;28;43034;-85
2023/09/04 10:20:04;;;;;;;;;;;26.20;70.60;;;;;;5027125;28;42979;-84
2023/09/04 10:22:37;;;;;;;;;;;26.10;68.40;;;;;;5026944;28;43480;-84
2023/09/04 10:25:23;;;;;;;;;;;26.10;68.70;;;;;;5027151;28;42930;-86
2023/09/04 10:27:50;;;;;;;;;;;26.00;68.60;;;;;;5027386;28;44095;-80
2023/09/04 10:30:17;;;;;;;;;;;26.10;71.20;;;;;;5027308;28;42911;-86
2023/09/04 10:32:43;;;;;;;;;;;25.90;71.60;;;;;;5027378;28;43816;-86
2023/09/04 10:35:09;;;;;;;;;;;26.00;71.80;;;;;;5027091;28;42918;-82
2023/09/04 10:37:37;;;;;;;;;;;26.10;71.40;;;;;;5026802;28;43434;-82
2023/09/04 10:40:05;;;;;;;;;;;26.10;71.90;;;;;;5026875;28;42986;-86
2023/09/04 10:42:33;;;;;;;;;;;26.10;71.80;;;;;;5017638;28;43041;-83
2023/09/04 10:45:10;;;;;;;;;;;26.10;71.80;;;;;;5009701;28;43014;-85
2023/09/04 10:47:42;;;;;;;;;;;26.00;71.60;;;;;;5007159;28;42922;-86
2023/09/04 10:50:25;;;;;;;;;;;26.00;71.80;;;;;;5006976;28;42998;-82
2023/09/04 10:52:50;;;;;;;;;;;25.90;71.20;;;;;;5006890;28;43068;-85
2023/09/04 10:55:17;;;;;;;;;;;26.00;71.40;;;;;;5006652;28;42927;-80
2023/09/04 10:58:01;;;;;;;;;;;26.00;71.20;;;;;;5006359;28;43532;-83
2023/09/04 11:00:31;;;;;;;;;;;26.20;68.90;;;;;;5006910;28;43006;-86
2023/09/04 11:03:10;;;;;;;;;;;26.00;69.40;;;;;;5006464;28;43809;-80
2023/09/04 11:05:54;;;;;;;;;;;26.20;72.10;;;;;;5006896;28;42926;-85
2023/09/04 11:08:26;;;;;;;;;;;26.10;70.20;;;;;;5006824;28;42966;-84
2023/09/04 11:10:58;;;;;;;;;;;26.20;69.90;;;;;;5008341;28;43078;-78
2023/09/04 11:13:25;;;;;;;;;;;26.00;72.40;;;;;;5015624;28;42981;-78
2023/09/04 11:15:57;;;;;;;;;;;26.30;72.20;;;;;;5024980;28;43081;-85
2023/09/04 11:18:28;;;;;;;;;;;26.20;69.70;;;;;;5023882;28;43512;-88
2023/09/04 11:20:54;;;;;;;;;;;24.80;70.90;;;;;;5020961;28;42950;-88
2023/09/04 11:23:19;;;;;;;;;;;26.10;71.80;;;;;;5025254;28;43630;-80
2023/09/04 11:25:46;;;;;;;;;;;26.10;72.50;;;;;;5025617;28;42980;-85
2023/09/04 11:28:12;;;;;;;;;;;26.10;72.00;;;;;;5023431;28;43387;-80
2023/09/04 11:30:38;;;;;;;;;;;26.40;72.10;;;;;;5023353;28;43020;-90
2023/09/04 11:33:04;;;;;;;;;;;26.10;71.80;;;;;;5024933;28;43598;-78
2023/09/04 11:35:29;;;;;;;;;;;26.20;71.90;;;;;;5020339;28;43020;-78
2023/09/04 11:37:57;;;;;;;;;;;26.20;71.80;;;;;;5025070;28;42864;-84
2023/09/04 11:40:29;;;;;;;;;;;26.10;72.10;;;;;;5026090;28;43030;-83
2023/09/04 11:42:55;;;;;;;;;;;26.30;71.90;;;;;;5024559;28;42949;-79
2023/09/04 11:45:23;;;;;;;;;;;26.20;72.10;;;;;;5025763;28;42941;-88
2023/09/04 11:47:50;;;;;;;;;;;26.20;71.60;;;;;;5025747;28;43526;-77
2023/09/04 11:50:16;;;;;;;;;;;26.20;71.60;;;;;;5024728;28;43022;-81
2023/09/04 11:52:42;;;;;;;;;;;26.10;71.80;;;;;;5023692;28;43609;-79
2023/09/04 11:55:09;;;;;;;;;;;26.40;72.00;;;;;;5025422;28;42763;-80
2023/09/04 11:57:35;;;;;;;;;;;26.30;71.80;;;;;;5024665;28;43516;-87
2023/09/04 12:00:00;;;;;;;;;;;26.20;71.80;;;;;;5025098;28;42964;-83
2023/09/04 12:02:26;;;;;;;;;;;26.30;71.70;;;;;;5025653;28;42987;-81
2023/09/04 12:04:56;;;;;;;;;;;26.40;71.80;;;;;;5024737;28;42994;-82
2023/09/04 12:07:21;;;;;;;;;;;26.30;71.90;;;;;;5023540;28;45697;-82
2023/09/04 12:09:47;;;;;;;;;;;26.40;72.10;;;;;;5019075;28;43013;-81
2023/09/04 12:12:13;;;;;;;;;;;26.20;71.80;;;;;;5023862;28;43754;-81
2023/09/04 12:14:43;;;;;;;;;;;26.20;71.70;;;;;;5022551;28;42980;-80
2023/09/04 12:17:10;;;;;;;;;;;26.30;70.10;;;;;;5023666;28;43464;-85
2023/09/04 12:19:36;;;;;;;;;;;26.30;71.80;;;;;;5022185;28;43169;-78
2023/09/04 12:22:11;;;;;;;;;;;26.30;71.40;;;;;;5024240;28;43090;-85
2023/09/04 12:24:37;;;;;;;;;;;26.30;69.60;;;;;;5028855;28;42996;-83
2023/09/04 12:27:03;;;;;;;;;;;26.40;72.10;;;;;;5024407;28;43428;-79
2023/09/04 12:29:29;;;;;;;;;;;26.30;71.40;;;;;;5024600;28;43095;-80
2023/09/04 12:31:54;;;;;;;;;;;26.40;72.10;;;;;;5024585;28;42868;-86
2023/09/04 12:34:23;;;;;;;;;;;26.30;71.70;;;;;;5024695;28;42938;-82
2023/09/04 12:36:53;;;;;;;;;;;26.20;69.40;;;;;;5024385;28;43037;-79
2023/09/04 12:39:19;;;;;;;;;;;26.30;71.60;;;;;;5024786;28;43398;-84
2023/09/04 12:41:51;;;;;;;;;;;26.40;71.60;;;;;;5021515;28;43307;-80
2023/09/04 12:44:17;;;;;;;;;;;26.30;71.60;;;;;;5024134;28;42990;-78
2023/09/04 12:46:42;;;;;;;;;;;26.40;71.60;;;;;;5024500;28;43607;-90
2023/09/04 12:49:08;;;;;;;;;;;26.30;71.20;;;;;;5022348;28;43045;-78
2023/09/04 12:51:33;;;;;;;;;;;26.40;71.60;;;;;;5022686;28;43647;-78
2023/09/04 12:53:59;;;;;;;;;;;26.30;71.40;;;;;;5022047;28;42998;-78
2023/09/04 12:56:24;;;;;;;;;;;26.30;71.80;;;;;;5023988;28;42878;-79
2023/09/04 12:58:50;;;;;;;;;;;26.30;71.60;;;;;;5024286;28;42989;-90
2023/09/04 13:01:15;;;;;;;;;;;26.50;71.50;;;;;;5016010;28;42999;-78
2023/09/04 13:03:41;;;;;;;;;;;26.30;71.50;;;;;;5023610;28;42958;-90
2023/09/04 13:06:07;;;;;;;;;;;26.30;71.70;;;;;;5014352;28;42887;-87
2023/09/04 13:08:32;;;;;;;;;;;26.50;71.60;;;;;;5014696;28;42993;-78
2023/09/04 13:10:58;;;;;;;;;;;26.20;71.40;;;;;;5013189;28;43447;-91
2023/09/04 13:13:24;;;;;;;;;;;26.20;71.50;;;;;;5021124;28;42905;-77
2023/09/04 13:15:50;;;;;;;;;;;26.30;70.80;;;;;;5023932;28;42959;-76
2023/09/04 13:18:15;;;;;;;;;;;26.20;71.40;;;;;;5024104;28;42912;-78
2023/09/04 13:20:40;;;;;;;;;;;26.40;71.60;;;;;;5023915;28;44071;-77
2023/09/04 13:23:07;;;;;;;;;;;26.40;71.70;;;;;;5021513;28;43070;-77
2023/09/04 13:25:32;;;;;;;;;;;26.20;71.30;;;;;;5023511;28;43483;-77
2023/09/04 13:27:58;;;;;;;;;;;26.40;71.60;;;;;;5023397;28;43068;-88
2023/09/04 13:30:23;;;;;;;;;;;26.30;70.70;;;;;;5023513;28;42874;-87
2023/09/04 13:32:49;;;;;;;;;;;26.30;71.50;;;;;;5023725;28;43056;-79
2023/09/04 13:35:15;;;;;;;;;;;26.40;71.80;;;;;;5023805;28;42910;-78
2023/09/04 13:37:41;;;;;;;;;;;26.20;71.60;;;;;;5026137;28;43072;-77
2023/09/04 13:40:06;;;;;;;;;;;26.50;72.00;;;;;;5027204;28;43368;-79
2023/09/04 13:42:32;;;;;;;;;;;26.30;71.10;;;;;;5025102;28;42901;-79
2023/09/04 13:44:58;;;;;;;;;;;25.70;71.50;;;;;;5026325;28;43484;-80
2023/09/04 13:47:25;;;;;;;;;;;26.30;71.50;;;;;;5027194;28;43187;-80
2023/09/04 13:49:53;;;;;;;;;;;26.50;72.00;;;;;;5026675;28;42979;-79
2023/09/04 13:52:18;;;;;;;;;;;26.40;71.90;;;;;;5024300;28;43180;-79
2023/09/04 13:54:44;;;;;;;;;;;26.40;72.30;;;;;;5027297;28;42918;-79
2023/09/04 13:57:09;;;;;;;;;;;27.10;72.70;;;;;;5027686;28;42954;-86
2023/09/04 13:59:35;;;;;;;;;;;26.30;71.90;;;;;;5027562;28;42957;-79
2023/09/04 14:02:00;;;;;;;;;;;26.50;72.20;;;;;;5027327;28;43026;-79
2023/09/04 14:04:26;;;;;;;;;;;26.30;72.20;;;;;;5027388;28;42797;-79
2023/09/04 14:06:52;;;;;;;;;;;26.30;72.10;;;;;;5026975;28;42858;-85
2023/09/04 14:09:17;;;;;;;;;;;26.50;72.20;;;;;;5027062;28;42922;-79
2023/09/04 14:11:43;;;;;;;;;;;26.30;72.40;;;;;;5027757;28;42851;-80